createdAt,value
2024-01-21T00:00:17.907Z,0.80
2024-01-21T00:02:44.609Z,1.00
2024-01-21T00:05:11.299Z,1.00
2024-01-21T00:07:40.159Z,1.20
2024-01-21T00:10:09.488Z,1.40
2024-01-21T00:12:36.732Z,1.50
2024-01-21T00:15:04.907Z,1.40
2024-01-21T00:17:31.695Z,1.60
2024-01-21T00:19:58.488Z,1.30
2024-01-21T00:22:25.156Z,1.30
2024-01-21T00:24:51.875Z,1.20
2024-01-21T00:27:18.536Z,1.20
2024-01-21T00:29:45.194Z,1.00
2024-01-21T00:32:12.397Z,1.10
2024-01-21T00:34:39.078Z,1.10
2024-01-21T00:37:06.054Z,1.30
2024-01-21T00:39:34.523Z,1.20
2024-01-21T00:42:07.863Z,1.10
2024-01-21T00:44:35.841Z,0.80
2024-01-21T00:47:02.528Z,0.80
2024-01-21T00:49:31.166Z,0.80
2024-01-21T00:51:58.301Z,1.30
2024-01-21T00:54:25.071Z,1.00
2024-01-21T00:56:51.977Z,1.20
2024-01-21T00:59:18.667Z,1.20
2024-01-21T01:01:45.309Z,1.10
2024-01-21T01:04:12.147Z,0.90
2024-01-21T01:06:38.938Z,1.20
2024-01-21T01:09:05.973Z,1.10
2024-01-21T01:11:33.909Z,1.10
2024-01-21T01:14:00.560Z,0.70
2024-01-21T01:16:27.191Z,0.90
2024-01-21T01:18:53.928Z,0.90
2024-01-21T01:21:20.688Z,0.90
2024-01-21T01:23:47.475Z,1.10
2024-01-21T01:26:14.125Z,1.10
2024-01-21T01:28:43.311Z,0.90
2024-01-21T01:31:16.558Z,0.80
2024-01-21T01:33:43.864Z,0.80
2024-01-21T01:36:11.892Z,1.00
2024-01-21T01:38:40.379Z,1.00
2024-01-21T01:41:07.323Z,1.00
2024-01-21T01:43:34.515Z,1.30
2024-01-21T01:46:01.824Z,1.30
2024-01-21T01:48:29.983Z,1.10
2024-01-21T01:51:00.019Z,0.90
2024-01-21T01:53:29.855Z,1.00
2024-01-21T01:55:56.928Z,0.90
2024-01-21T01:58:27.782Z,1.10
2024-01-21T02:00:55.120Z,0.90
2024-01-21T02:03:26.194Z,0.80
2024-01-21T02:05:53.137Z,0.70
2024-01-21T02:08:20.124Z,0.90
2024-01-21T02:10:47.624Z,0.80
2024-01-21T02:13:14.446Z,0.90
2024-01-21T02:15:41.119Z,1.00
2024-01-21T02:18:07.947Z,0.90
2024-01-21T02:20:36.005Z,0.90
2024-01-21T02:23:05.362Z,1.10
2024-01-21T02:25:35.150Z,1.10
2024-01-21T02:28:01.810Z,1.30
2024-01-21T02:30:29.866Z,1.10
2024-01-21T02:32:56.611Z,1.00
2024-01-21T02:35:23.260Z,0.80
2024-01-21T02:37:49.938Z,0.70
2024-01-21T02:40:16.735Z,1.00
2024-01-21T02:42:46.295Z,0.80
2024-01-21T02:45:13.174Z,0.60
2024-01-21T02:47:40.055Z,0.80
2024-01-21T02:50:09.411Z,0.80
2024-01-21T02:52:36.135Z,0.90
2024-01-21T02:55:02.823Z,0.60
2024-01-21T02:57:29.538Z,0.50
2024-01-21T02:59:56.235Z,0.70
2024-01-21T03:02:22.947Z,0.90
2024-01-21T03:04:49.773Z,1.00
2024-01-21T03:07:16.520Z,0.70
2024-01-21T03:09:46.034Z,0.90
2024-01-21T03:12:13.126Z,0.80
2024-01-21T03:14:40.248Z,0.90
2024-01-21T03:17:07.080Z,0.90
2024-01-21T03:19:33.789Z,0.80
2024-01-21T03:22:00.749Z,1.10
2024-01-21T03:24:27.501Z,0.90
2024-01-21T03:26:54.216Z,0.90
2024-01-21T03:29:24.085Z,1.00
2024-01-21T03:31:50.759Z,1.10
2024-01-21T03:34:17.672Z,0.90
2024-01-21T03:36:44.651Z,1.00
2024-01-21T03:39:11.488Z,1.10
2024-01-21T03:41:38.258Z,0.80
2024-01-21T03:44:05.187Z,1.00
2024-01-21T03:46:32.012Z,0.90
2024-01-21T03:48:59.113Z,0.90
2024-01-21T03:51:25.827Z,1.00
2024-01-21T03:53:52.541Z,0.90
2024-01-21T03:56:28.867Z,0.80
2024-01-21T03:58:55.507Z,1.20
2024-01-21T04:01:22.400Z,0.80
2024-01-21T04:03:49.501Z,0.80
2024-01-21T04:06:16.488Z,1.00
2024-01-21T04:08:44.519Z,0.80
2024-01-21T04:11:11.396Z,0.70
2024-01-21T04:13:38.072Z,0.90
2024-01-21T04:16:05.094Z,0.90
2024-01-21T04:18:33.725Z,0.90
2024-01-21T04:21:03.902Z,0.90
2024-01-21T04:23:31.571Z,1.20
2024-01-21T04:26:00.661Z,0.90
2024-01-21T04:28:27.897Z,1.00
2024-01-21T04:30:54.783Z,1.30
2024-01-21T04:33:21.970Z,1.20
2024-01-21T04:35:48.745Z,1.10
2024-01-21T04:38:15.427Z,1.20
2024-01-21T04:40:43.169Z,1.10
2024-01-21T04:43:09.825Z,1.30
2024-01-21T04:45:36.618Z,1.30
2024-01-21T04:48:03.863Z,1.20
2024-01-21T04:50:30.614Z,1.10
2024-01-21T04:52:57.453Z,1.20
2024-01-21T04:55:24.118Z,1.50
2024-01-21T04:57:57.226Z,1.70
2024-01-21T05:00:24.008Z,1.40
2024-01-21T05:02:50.660Z,1.50
2024-01-21T05:05:17.398Z,1.30
2024-01-21T05:07:47.173Z,1.40
2024-01-21T05:10:13.833Z,1.50
2024-01-21T05:12:40.518Z,1.50
2024-01-21T05:15:07.559Z,1.40
2024-01-21T05:17:34.309Z,1.30
2024-01-21T05:20:01.099Z,1.30
2024-01-21T05:22:29.509Z,1.10
2024-01-21T05:24:56.473Z,1.30
2024-01-21T05:27:23.322Z,1.20
2024-01-21T05:29:50.094Z,1.20
2024-01-21T05:32:16.811Z,1.20
2024-01-21T05:34:43.547Z,1.20
2024-01-21T05:37:10.526Z,1.10
2024-01-21T05:39:37.261Z,1.10
2024-01-21T05:42:05.825Z,1.20
2024-01-21T05:44:33.148Z,1.30
2024-01-21T05:46:59.943Z,1.20
2024-01-21T05:49:28.073Z,1.00
2024-01-21T05:51:55.150Z,1.00
2024-01-21T05:54:21.972Z,1.30
2024-01-21T05:56:48.716Z,1.20
2024-01-21T05:59:17.988Z,1.00
2024-01-21T06:01:47.640Z,1.00
2024-01-21T06:04:17.213Z,1.00
2024-01-21T06:06:44.919Z,1.10
2024-01-21T06:09:12.463Z,1.00
2024-01-21T06:11:40.890Z,1.20
2024-01-21T06:14:10.697Z,1.30
2024-01-21T06:16:38.086Z,1.30
2024-01-21T06:19:05.270Z,1.50
2024-01-21T06:21:32.142Z,1.50
2024-01-21T06:23:58.812Z,1.40
2024-01-21T06:26:25.548Z,1.20
2024-01-21T06:28:55.115Z,1.40
2024-01-21T06:31:21.866Z,1.50
2024-01-21T06:33:56.026Z,1.20
2024-01-21T06:36:25.228Z,1.10
2024-01-21T06:38:52.013Z,1.20
2024-01-21T06:41:18.844Z,1.10
2024-01-21T06:43:45.862Z,1.00
2024-01-21T06:46:12.929Z,1.10
2024-01-21T06:48:39.708Z,1.20
2024-01-21T06:51:11.199Z,1.20
2024-01-21T06:53:38.863Z,1.20
2024-01-21T06:56:08.339Z,1.30
2024-01-21T06:58:38.206Z,1.20
2024-01-21T07:01:04.986Z,1.40
2024-01-21T07:03:31.890Z,1.30
2024-01-21T07:05:58.702Z,0.90
2024-01-21T07:08:25.385Z,0.90
2024-01-21T07:10:52.209Z,1.10
2024-01-21T07:13:18.852Z,1.20
2024-01-21T07:15:45.934Z,1.20
2024-01-21T07:18:12.835Z,1.30
2024-01-21T07:20:39.603Z,1.40
2024-01-21T07:23:07.110Z,1.30
2024-01-21T07:25:36.040Z,1.30
2024-01-21T07:28:03.368Z,1.40
2024-01-21T07:30:34.866Z,1.50
2024-01-21T07:33:03.433Z,1.40
2024-01-21T07:35:34.042Z,1.70
2024-01-21T07:38:03.565Z,1.80
2024-01-21T07:40:31.785Z,1.80
2024-01-21T07:42:59.111Z,1.80
2024-01-21T07:45:28.223Z,1.70
2024-01-21T07:47:56.211Z,1.90
2024-01-21T07:50:22.989Z,1.90
2024-01-21T07:52:49.604Z,2.00
2024-01-21T07:55:17.733Z,1.70
2024-01-21T07:57:44.432Z,1.80
2024-01-21T08:00:11.722Z,2.00
2024-01-21T08:02:38.343Z,2.10
2024-01-21T08:05:06.152Z,2.10
2024-01-21T08:07:36.058Z,2.20
2024-01-21T08:10:06.179Z,2.20
2024-01-21T08:12:36.096Z,2.30
2024-01-21T08:15:04.160Z,2.40
2024-01-21T08:17:31.251Z,2.20
2024-01-21T08:19:57.970Z,2.00
2024-01-21T08:22:27.616Z,2.00
2024-01-21T08:24:55.776Z,2.20
2024-01-21T08:27:22.806Z,2.30
2024-01-21T08:29:49.548Z,2.30
2024-01-21T08:32:16.217Z,2.20
2024-01-21T08:34:43.339Z,2.30
2024-01-21T08:37:10.006Z,2.20
2024-01-21T08:39:42.128Z,2.20
2024-01-21T08:42:10.807Z,2.30
2024-01-21T08:44:37.461Z,2.40
2024-01-21T08:47:04.511Z,2.60
2024-01-21T08:49:31.451Z,2.60
2024-01-21T08:51:58.935Z,2.50
2024-01-21T08:54:31.070Z,2.60
2024-01-21T08:56:57.752Z,2.60
2024-01-21T08:59:27.101Z,2.60
2024-01-21T09:01:56.809Z,2.90
2024-01-21T09:04:23.629Z,2.80
2024-01-21T09:06:50.393Z,2.80
2024-01-21T09:09:17.278Z,2.90
2024-01-21T09:11:44.014Z,3.00
2024-01-21T09:14:10.745Z,3.00
2024-01-21T09:16:37.552Z,3.10
2024-01-21T09:19:04.487Z,3.20
2024-01-21T09:21:33.906Z,3.30
2024-01-21T09:24:07.573Z,3.40
2024-01-21T09:26:35.211Z,3.40
2024-01-21T09:29:02.036Z,3.50
2024-01-21T09:31:28.705Z,3.60
2024-01-21T09:33:57.424Z,3.50
2024-01-21T09:36:24.595Z,3.50
2024-01-21T09:38:57.930Z,3.50
2024-01-21T09:41:49.192Z,3.40
2024-01-21T09:44:21.159Z,3.50
2024-01-21T09:46:56.059Z,3.60
2024-01-21T09:49:25.391Z,3.80
2024-01-21T09:51:55.961Z,3.80
2024-01-21T09:54:25.013Z,3.80
2024-01-21T09:56:56.054Z,3.80
2024-01-21T09:59:23.092Z,3.80
2024-01-21T10:01:51.505Z,3.70
2024-01-21T10:04:20.414Z,3.70
2024-01-21T10:06:48.111Z,3.70
2024-01-21T10:09:22.574Z,3.70
2024-01-21T10:11:57.945Z,3.70
2024-01-21T10:14:32.878Z,3.70
2024-01-21T10:17:01.292Z,3.80
2024-01-21T10:19:32.532Z,3.80
2024-01-21T10:22:09.815Z,3.90
2024-01-21T10:24:41.009Z,3.80
2024-01-21T10:27:09.318Z,3.90
2024-01-21T10:29:47.906Z,3.90
2024-01-21T10:32:16.529Z,4.00
2024-01-21T10:34:54.315Z,3.90
2024-01-21T10:37:21.399Z,3.90
2024-01-21T10:39:52.192Z,3.90
2024-01-21T10:42:25.904Z,3.90
2024-01-21T10:44:53.745Z,4.00
2024-01-21T10:47:22.678Z,4.00
2024-01-21T10:49:50.654Z,4.00
2024-01-21T10:52:18.398Z,4.00
2024-01-21T10:54:48.939Z,4.00
2024-01-21T10:57:16.388Z,4.10
2024-01-21T10:59:43.383Z,4.10
2024-01-21T11:02:11.061Z,4.10
2024-01-21T11:04:37.985Z,4.10
2024-01-21T11:07:10.874Z,4.20
2024-01-21T11:09:41.813Z,4.20
2024-01-21T11:12:13.340Z,4.20
2024-01-21T11:14:41.973Z,4.20
2024-01-21T11:17:13.413Z,4.20
2024-01-21T11:19:45.556Z,4.20
2024-01-21T11:22:15.765Z,4.30
2024-01-21T11:24:47.266Z,4.30
2024-01-21T11:27:31.750Z,4.40
2024-01-21T11:30:01.440Z,4.40
2024-01-21T11:32:30.781Z,4.40
2024-01-21T11:35:09.100Z,4.50
2024-01-21T11:37:35.901Z,4.50
2024-01-21T11:40:04.048Z,4.50
2024-01-21T11:42:33.811Z,4.50
2024-01-21T11:45:07.731Z,4.60
2024-01-21T11:47:36.409Z,4.60
2024-01-21T11:50:03.976Z,4.70
2024-01-21T11:52:30.877Z,4.70
2024-01-21T11:54:59.293Z,4.70
2024-01-21T11:57:26.513Z,4.70
2024-01-21T11:59:53.321Z,4.80
2024-01-21T12:02:20.473Z,4.90
2024-01-21T12:04:47.667Z,4.90
2024-01-21T12:07:15.693Z,4.90
2024-01-21T12:09:42.513Z,5.00
2024-01-21T12:12:09.895Z,5.00
2024-01-21T12:14:37.999Z,5.00
2024-01-21T12:17:05.267Z,5.00
2024-01-21T12:19:32.080Z,5.00
2024-01-21T12:21:59.089Z,5.00
2024-01-21T12:24:27.116Z,5.00
2024-01-21T12:26:56.378Z,5.00
2024-01-21T12:29:23.508Z,5.10
2024-01-21T12:31:50.538Z,5.10
2024-01-21T12:34:19.990Z,5.10
2024-01-21T12:36:47.516Z,5.10
2024-01-21T12:39:16.099Z,5.10
2024-01-21T12:41:43.324Z,5.10
2024-01-21T12:44:10.205Z,5.20
2024-01-21T12:46:39.255Z,5.30
2024-01-21T12:49:06.335Z,5.20
2024-01-21T12:51:33.248Z,5.30
2024-01-21T12:54:00.179Z,5.30
2024-01-21T12:56:28.354Z,5.30
2024-01-21T12:58:55.714Z,5.30
2024-01-21T13:01:24.075Z,5.30
2024-01-21T13:03:55.087Z,5.30
2024-01-21T13:06:22.181Z,5.30
2024-01-21T13:08:49.924Z,5.30
2024-01-21T13:11:17.297Z,5.30
2024-01-21T13:13:44.341Z,5.30
2024-01-21T13:16:13.867Z,5.30
2024-01-21T13:18:42.390Z,5.30
2024-01-21T13:21:11.013Z,5.30
2024-01-21T13:23:37.791Z,5.30
2024-01-21T13:26:08.918Z,5.30
2024-01-21T13:29:11.099Z,5.30
2024-01-21T13:31:39.358Z,5.30
2024-01-21T13:34:06.610Z,5.30
2024-01-21T13:36:36.734Z,5.30
2024-01-21T13:39:05.747Z,5.30
2024-01-21T13:41:32.539Z,5.40
2024-01-21T13:44:02.075Z,5.50
2024-01-21T13:46:28.783Z,5.40
2024-01-21T13:48:55.650Z,5.50
2024-01-21T13:51:25.006Z,5.50
2024-01-21T13:53:51.713Z,5.40
2024-01-21T13:56:18.547Z,5.50
2024-01-21T13:58:45.217Z,5.40
2024-01-21T14:01:12.045Z,5.40
2024-01-21T14:03:39.203Z,5.30
2024-01-21T14:06:06.297Z,5.30
2024-01-21T14:08:33.039Z,5.30
2024-01-21T14:11:02.782Z,5.30
2024-01-21T14:13:29.541Z,5.30
2024-01-21T14:15:56.200Z,5.30
2024-01-21T14:18:23.594Z,5.30
2024-01-21T14:20:50.274Z,5.30
2024-01-21T14:23:20.295Z,5.30
2024-01-21T14:25:48.952Z,5.30
2024-01-21T14:28:21.744Z,5.30
2024-01-21T14:30:50.551Z,5.30
2024-01-21T14:33:17.378Z,5.40
2024-01-21T14:35:45.175Z,5.40
2024-01-21T14:38:12.091Z,5.40
2024-01-21T14:40:38.979Z,5.30
2024-01-21T14:43:05.802Z,5.40
2024-01-21T14:45:33.868Z,5.30
2024-01-21T14:48:00.844Z,5.30
2024-01-21T14:50:27.605Z,5.30
2024-01-21T14:52:54.371Z,5.30
2024-01-21T14:55:21.093Z,5.20
2024-01-21T14:57:47.969Z,5.30
2024-01-21T15:00:15.436Z,5.30
2024-01-21T15:02:42.304Z,5.30
2024-01-21T15:05:12.186Z,5.40
2024-01-21T15:07:42.391Z,5.40
2024-01-21T15:10:11.983Z,5.40
2024-01-21T15:12:38.688Z,5.40
2024-01-21T15:15:22.365Z,5.40
2024-01-21T15:17:49.388Z,5.30
2024-01-21T15:20:17.055Z,5.40
2024-01-21T15:22:46.934Z,5.40
2024-01-21T15:25:20.134Z,5.40
2024-01-21T15:27:46.774Z,5.30
2024-01-21T15:30:13.752Z,5.20
2024-01-21T15:32:40.486Z,5.20
2024-01-21T15:35:07.562Z,5.20
2024-01-21T15:37:34.294Z,5.20
2024-01-21T15:40:01.321Z,5.20
2024-01-21T15:42:31.806Z,5.30
2024-01-21T15:44:58.704Z,5.30
2024-01-21T15:47:25.842Z,5.30
2024-01-21T15:49:52.677Z,5.30
2024-01-21T15:52:20.498Z,5.30
2024-01-21T15:54:50.890Z,5.30
2024-01-21T15:57:20.690Z,5.30
2024-01-21T15:59:47.885Z,5.30
2024-01-21T16:02:16.734Z,5.30
2024-01-21T16:04:44.052Z,5.30
2024-01-21T16:07:11.761Z,5.40
2024-01-21T16:09:38.591Z,5.30
2024-01-21T16:12:07.443Z,5.20
2024-01-21T16:14:34.245Z,5.30
2024-01-21T16:17:01.993Z,5.30
2024-01-21T16:19:28.862Z,5.30
2024-01-21T16:21:56.646Z,5.30
2024-01-21T16:24:23.480Z,5.30
2024-01-21T16:26:50.120Z,5.30
2024-01-21T16:29:16.809Z,5.30
2024-01-21T16:31:43.561Z,5.30
2024-01-21T16:34:10.563Z,5.40
2024-01-21T16:36:38.349Z,5.30
2024-01-21T16:39:05.172Z,5.30
2024-01-21T16:41:31.834Z,5.30
2024-01-21T16:44:02.395Z,5.40
2024-01-21T16:46:30.387Z,5.40
2024-01-21T16:48:57.986Z,5.30
2024-01-21T16:51:31.077Z,5.40
2024-01-21T16:53:57.761Z,5.40
2024-01-21T16:56:24.792Z,5.40
2024-01-21T16:58:57.331Z,5.40
2024-01-21T17:01:25.625Z,5.40
2024-01-21T17:03:53.723Z,5.40
2024-01-21T17:06:20.485Z,5.50
2024-01-21T17:08:50.080Z,5.40
2024-01-21T17:11:23.687Z,5.50
2024-01-21T17:13:51.002Z,5.50
2024-01-21T17:16:18.106Z,5.60
2024-01-21T17:19:02.532Z,5.60
2024-01-21T17:21:29.347Z,5.60
2024-01-21T17:23:56.077Z,5.60
2024-01-21T17:26:22.756Z,5.60
2024-01-21T17:28:49.405Z,5.50
2024-01-21T17:31:16.060Z,5.50
2024-01-21T17:33:43.868Z,5.60
2024-01-21T17:36:15.315Z,5.60
2024-01-21T17:38:42.138Z,5.60
2024-01-21T17:41:08.841Z,5.50
2024-01-21T17:43:35.527Z,5.50
2024-01-21T17:46:02.258Z,5.50
2024-01-21T17:48:29.064Z,5.50
2024-01-21T17:50:56.297Z,5.50
2024-01-21T17:53:23.118Z,5.60
2024-01-21T17:55:50.470Z,5.60
2024-01-21T17:58:20.024Z,5.50
2024-01-21T18:00:46.834Z,5.60
2024-01-21T18:03:13.868Z,5.60
2024-01-21T18:05:40.758Z,5.60
2024-01-21T18:08:07.732Z,5.60
2024-01-21T18:10:35.527Z,5.60
2024-01-21T18:13:02.260Z,5.60
2024-01-21T18:15:28.912Z,5.60
2024-01-21T18:17:55.650Z,5.70
2024-01-21T18:20:22.294Z,5.80
2024-01-21T18:22:49.344Z,5.80
2024-01-21T18:25:15.964Z,5.60
2024-01-21T18:27:42.647Z,5.50
2024-01-21T18:30:10.433Z,5.40
2024-01-21T18:32:37.718Z,5.50
2024-01-21T18:35:05.772Z,5.30
2024-01-21T18:37:33.110Z,5.20
2024-01-21T18:39:59.813Z,5.20
2024-01-21T18:42:27.022Z,5.30
2024-01-21T18:44:53.959Z,5.30
2024-01-21T18:47:20.693Z,5.20
2024-01-21T18:49:47.399Z,5.20
2024-01-21T18:52:14.048Z,5.10
2024-01-21T18:54:41.437Z,5.10
2024-01-21T18:57:11.721Z,5.30
2024-01-21T18:59:40.156Z,5.30
2024-01-21T19:02:07.150Z,5.10
2024-01-21T19:04:38.720Z,5.20
2024-01-21T19:07:09.796Z,5.10
2024-01-21T19:09:37.620Z,5.10
2024-01-21T19:12:04.642Z,5.10
2024-01-21T19:14:31.466Z,5.20
2024-01-21T19:16:58.353Z,5.20
2024-01-21T19:19:25.102Z,5.30
2024-01-21T19:21:51.841Z,5.20
2024-01-21T19:24:18.582Z,5.10
2024-01-21T19:26:45.464Z,5.10
2024-01-21T19:29:14.840Z,5.10
2024-01-21T19:31:41.551Z,5.30
2024-01-21T19:34:08.576Z,5.00
2024-01-21T19:36:35.253Z,4.90
2024-01-21T19:39:02.045Z,4.80
2024-01-21T19:41:29.061Z,4.90
2024-01-21T19:43:55.796Z,4.90
2024-01-21T19:46:22.623Z,5.00
2024-01-21T19:48:51.319Z,5.00
2024-01-21T19:51:19.422Z,4.90
2024-01-21T19:53:47.088Z,4.90
2024-01-21T19:56:13.903Z,4.80
2024-01-21T19:58:40.560Z,4.80
2024-01-21T20:01:07.263Z,4.80
2024-01-21T20:03:33.978Z,5.00
2024-01-21T20:06:00.672Z,5.10
2024-01-21T20:08:27.414Z,5.20
2024-01-21T20:10:54.088Z,5.30
2024-01-21T20:13:20.869Z,5.50
2024-01-21T20:15:47.537Z,5.50
2024-01-21T20:18:14.415Z,5.60
2024-01-21T20:20:41.108Z,5.70
2024-01-21T20:23:07.950Z,5.80
2024-01-21T20:25:34.931Z,5.80
2024-01-21T20:28:01.726Z,5.80
2024-01-21T20:30:28.540Z,5.80
2024-01-21T20:32:55.286Z,5.80
2024-01-21T20:35:22.573Z,5.80
2024-01-21T20:37:49.345Z,5.90
2024-01-21T20:40:16.189Z,5.90
2024-01-21T20:42:45.868Z,6.00
2024-01-21T20:45:12.648Z,6.00
2024-01-21T20:47:39.498Z,6.00
2024-01-21T20:50:07.049Z,6.00
2024-01-21T20:52:34.887Z,5.90
2024-01-21T20:55:03.807Z,5.90
2024-01-21T20:57:34.842Z,5.90
2024-01-21T21:00:03.661Z,6.00
2024-01-21T21:02:30.467Z,6.00
2024-01-21T21:04:57.100Z,5.90
2024-01-21T21:07:23.782Z,6.00
2024-01-21T21:09:50.462Z,6.00
2024-01-21T21:12:17.609Z,6.00
2024-01-21T21:14:46.875Z,6.00
2024-01-21T21:17:14.029Z,6.00
2024-01-21T21:19:42.659Z,6.00
2024-01-21T21:22:09.546Z,6.00
2024-01-21T21:24:36.439Z,6.10
2024-01-21T21:27:03.692Z,6.10
2024-01-21T21:29:30.437Z,6.10
2024-01-21T21:31:57.174Z,6.20
2024-01-21T21:34:25.296Z,6.20
2024-01-21T21:36:51.934Z,6.30
2024-01-21T21:39:18.612Z,6.30
2024-01-21T21:41:45.264Z,6.30
2024-01-21T21:44:14.388Z,6.40
2024-01-21T21:46:44.092Z,6.40
2024-01-21T21:49:11.079Z,6.50
2024-01-21T21:51:38.163Z,6.50
2024-01-21T21:54:06.716Z,6.40
2024-01-21T21:56:33.576Z,6.50
2024-01-21T21:59:01.245Z,6.50
2024-01-21T22:01:29.656Z,6.50
2024-01-21T22:03:58.056Z,6.60
2024-01-21T22:06:24.860Z,6.60
2024-01-21T22:08:51.659Z,6.70
2024-01-21T22:11:19.119Z,6.70
2024-01-21T22:13:45.900Z,6.70
2024-01-21T22:16:13.886Z,6.70
2024-01-21T22:18:40.719Z,6.80
2024-01-21T22:21:18.597Z,6.70
2024-01-21T22:23:49.048Z,6.70
2024-01-21T22:26:19.115Z,6.70
2024-01-21T22:28:45.905Z,6.80
2024-01-21T22:31:13.616Z,6.80
2024-01-21T22:33:40.523Z,6.90
2024-01-21T22:36:07.556Z,6.80
2024-01-21T22:38:34.323Z,6.80
2024-01-21T22:41:00.981Z,6.90
2024-01-21T22:43:27.789Z,6.90
2024-01-21T22:45:54.858Z,6.90
2024-01-21T22:48:21.624Z,6.90
2024-01-21T22:50:48.408Z,7.00
2024-01-21T22:53:15.145Z,7.00
2024-01-21T22:55:41.911Z,7.00
2024-01-21T22:58:11.709Z,7.00
2024-01-21T23:00:39.417Z,7.00
2024-01-21T23:03:07.203Z,7.00
2024-01-21T23:05:36.908Z,7.00
2024-01-21T23:08:03.689Z,7.10
2024-01-21T23:10:33.090Z,7.20
2024-01-21T23:13:00.374Z,7.10
2024-01-21T23:15:27.128Z,7.20
2024-01-21T23:17:53.949Z,7.20
2024-01-21T23:20:20.754Z,7.20
2024-01-21T23:22:50.505Z,7.20
2024-01-21T23:25:17.263Z,7.20
2024-01-21T23:27:43.991Z,7.30
2024-01-21T23:30:13.912Z,7.30
2024-01-21T23:32:40.850Z,7.30
2024-01-21T23:35:07.974Z,7.30
2024-01-21T23:37:34.789Z,7.40
2024-01-21T23:40:04.539Z,7.40
2024-01-21T23:42:31.220Z,7.50
2024-01-21T23:44:57.888Z,7.50
2024-01-21T23:47:24.560Z,7.60
2024-01-21T23:49:51.282Z,7.60
2024-01-21T23:52:17.895Z,7.60
2024-01-21T23:54:44.832Z,7.50
2024-01-21T23:57:13.826Z,7.60
2024-01-21T23:59:40.622Z,7.60
